createdAt,value
2018-09-03T00:01:14.127Z,14.30
2018-09-03T00:03:42.691Z,14.30
2018-09-03T00:06:11.381Z,14.30
2018-09-03T00:08:39.947Z,14.30
2018-09-03T00:11:08.571Z,14.20
2018-09-03T00:13:37.166Z,14.10
2018-09-03T00:16:05.933Z,14.10
2018-09-03T00:18:34.563Z,14.00
2018-09-03T00:21:03.198Z,13.90
2018-09-03T00:23:31.847Z,13.80
2018-09-03T00:26:00.467Z,13.70
2018-09-03T00:28:29.075Z,13.80
2018-09-03T00:31:16.730Z,13.70
2018-09-03T00:33:50.439Z,13.70
2018-09-03T00:36:24.470Z,13.70
2018-09-03T00:38:58.416Z,13.80
2018-09-03T00:41:32.374Z,13.80
2018-09-03T00:44:06.299Z,13.80
2018-09-03T00:46:40.152Z,13.80
2018-09-03T00:49:08.778Z,13.80
2018-09-03T00:51:37.606Z,13.80
2018-09-03T00:54:06.307Z,13.80
2018-09-03T00:56:34.943Z,13.70
2018-09-03T00:59:03.579Z,13.70
2018-09-03T01:01:32.342Z,13.70
2018-09-03T01:04:00.991Z,13.70
2018-09-03T01:06:29.612Z,13.70
2018-09-03T01:08:58.195Z,13.70
2018-09-03T01:11:27.106Z,13.60
2018-09-03T01:13:56.458Z,13.50
2018-09-03T01:16:25.082Z,13.50
2018-09-03T01:18:56.302Z,13.50
2018-09-03T01:21:25.842Z,13.50
2018-09-03T01:23:55.023Z,13.50
2018-09-03T01:26:23.639Z,13.50
2018-09-03T01:28:52.562Z,13.50
2018-09-03T01:31:26.399Z,13.40
2018-09-03T01:33:55.328Z,13.50
2018-09-03T01:36:23.903Z,13.50
2018-09-03T01:38:52.435Z,13.50
2018-09-03T01:44:18.982Z,13.50
2018-09-03T01:46:47.623Z,13.50
2018-09-03T01:49:16.269Z,13.50
2018-09-03T01:51:44.866Z,13.60
2018-09-03T01:54:13.423Z,13.60
2018-09-03T01:56:42.091Z,13.70
2018-09-03T01:59:10.730Z,13.70
2018-09-03T02:01:39.358Z,13.80
2018-09-03T02:04:07.955Z,13.80
2018-09-03T02:06:36.584Z,13.80
2018-09-03T02:09:08.653Z,13.80
2018-09-03T02:11:37.317Z,13.80
2018-09-03T02:14:06.286Z,13.90
2018-09-03T02:16:35.159Z,13.90
2018-09-03T02:19:03.727Z,13.90
2018-09-03T02:21:46.063Z,13.80
2018-09-03T02:24:14.721Z,13.70
2018-09-03T02:26:43.410Z,13.70
2018-09-03T02:29:12.022Z,13.70
2018-09-03T02:31:40.715Z,13.70
2018-09-03T02:34:09.303Z,13.70
2018-09-03T02:36:37.875Z,13.80
2018-09-03T02:39:07.672Z,13.80
2018-09-03T02:41:36.369Z,13.80
2018-09-03T02:44:05.080Z,13.80
2018-09-03T02:46:33.747Z,13.80
2018-09-03T02:49:02.387Z,13.80
2018-09-03T02:57:16.993Z,13.80
2018-09-03T02:59:59.291Z,13.80
2018-09-03T03:02:27.875Z,13.80
2018-09-03T03:04:56.471Z,13.80
2018-09-03T03:07:25.075Z,13.80
2018-09-03T03:09:53.879Z,13.80
2018-09-03T03:12:22.502Z,13.80
2018-09-03T03:14:52.958Z,13.80
2018-09-03T03:17:22.246Z,13.80
2018-09-03T03:19:51.141Z,13.80
2018-09-03T03:22:20.198Z,13.80
2018-09-03T03:24:49.117Z,13.80
2018-09-03T03:27:17.739Z,13.80
2018-09-03T03:29:51.682Z,13.80
2018-09-03T03:32:20.375Z,13.80
2018-09-03T03:34:48.975Z,13.80
2018-09-03T03:37:17.649Z,13.80
2018-09-03T03:39:46.250Z,13.80
2018-09-03T03:42:14.854Z,13.70
2018-09-03T03:44:44.555Z,13.70
2018-09-03T03:47:13.209Z,13.70
2018-09-03T03:49:41.834Z,13.70
2018-09-03T03:52:10.430Z,13.70
2018-09-03T03:54:39.026Z,13.80
2018-09-03T03:57:07.878Z,13.80
2018-09-03T03:59:37.496Z,13.80
2018-09-03T04:02:06.202Z,13.80
2018-09-03T04:04:34.829Z,13.90
2018-09-03T04:07:03.455Z,13.90
2018-09-03T04:09:32.125Z,13.90
2018-09-03T04:12:00.637Z,13.90
2018-09-03T04:14:29.196Z,13.90
2018-09-03T04:16:57.819Z,14.00
2018-09-03T04:19:26.459Z,14.00
2018-09-03T04:21:55.044Z,14.00
2018-09-03T04:24:23.614Z,14.00
2018-09-03T04:26:52.843Z,14.00
2018-09-03T04:29:21.452Z,14.10
2018-09-03T04:31:50.103Z,14.10
2018-09-03T04:34:18.767Z,14.10
2018-09-03T04:36:47.391Z,14.10
2018-09-03T04:39:16.012Z,14.00
2018-09-03T04:41:44.702Z,14.00
2018-09-03T04:44:13.439Z,14.00
2018-09-03T04:46:42.097Z,14.00
2018-09-03T04:49:10.787Z,14.00
2018-09-03T04:51:44.682Z,14.00
2018-09-03T04:54:13.307Z,14.00
2018-09-03T04:56:41.867Z,13.90
2018-09-03T04:59:10.482Z,13.90
2018-09-03T05:04:54.473Z,13.90
2018-09-03T05:07:23.200Z,13.90
2018-09-03T05:10:01.396Z,13.90
2018-09-03T05:12:30.108Z,13.90
2018-09-03T05:14:58.785Z,13.90
2018-09-03T05:17:27.471Z,13.90
2018-09-03T05:20:10.682Z,13.90
2018-09-03T05:22:39.318Z,13.90
2018-09-03T05:25:07.934Z,13.90
2018-09-03T05:27:36.639Z,13.90
2018-09-03T05:32:58.623Z,13.90
2018-09-03T05:35:27.250Z,13.90
2018-09-03T05:37:55.861Z,13.90
2018-09-03T05:40:24.653Z,13.90
2018-09-03T05:42:53.274Z,14.00
2018-09-03T05:45:21.894Z,14.00
2018-09-03T05:47:50.490Z,14.10
2018-09-03T05:50:19.095Z,14.10
2018-09-03T05:52:47.752Z,14.20
2018-09-03T05:55:16.491Z,14.20
2018-09-03T05:57:45.119Z,14.20
2018-09-03T06:00:13.692Z,14.20
2018-09-03T06:02:42.255Z,14.30
2018-09-03T06:05:10.952Z,14.30
2018-09-03T06:07:40.756Z,14.40
2018-09-03T06:10:09.427Z,14.40
2018-09-03T06:12:38.146Z,14.40
2018-09-03T06:15:06.734Z,14.40
2018-09-03T06:17:35.314Z,14.40
2018-09-03T06:20:03.954Z,14.40
2018-09-03T06:22:32.540Z,14.40
2018-09-03T06:25:01.134Z,14.50
2018-09-03T06:27:29.754Z,14.50
2018-09-03T06:29:58.695Z,14.50
2018-09-03T06:32:27.298Z,14.50
2018-09-03T06:34:55.898Z,14.60
2018-09-03T06:37:24.600Z,14.60
2018-09-03T06:39:53.234Z,14.60
2018-09-03T06:42:21.922Z,14.60
2018-09-03T06:44:50.619Z,14.70
2018-09-03T06:47:19.274Z,14.70
2018-09-03T06:49:47.920Z,14.80
2018-09-03T06:52:16.547Z,14.80
2018-09-03T06:54:45.187Z,14.90
2018-09-03T06:57:14.000Z,15.00
2018-09-03T06:59:42.665Z,15.00
2018-09-03T07:02:11.231Z,15.00
2018-09-03T07:04:39.964Z,15.10
2018-09-03T07:07:08.855Z,15.20
2018-09-03T07:09:37.514Z,15.20
2018-09-03T07:12:06.186Z,15.30
2018-09-03T07:14:34.799Z,15.30
2018-09-03T07:17:03.466Z,15.30
2018-09-03T07:19:32.098Z,15.40
2018-09-03T07:22:00.734Z,15.50
2018-09-03T07:24:29.335Z,15.60
2018-09-03T07:26:57.990Z,15.70
2018-09-03T07:29:26.743Z,15.70
2018-09-03T07:31:55.361Z,15.80
2018-09-03T07:34:24.134Z,15.80
2018-09-03T07:36:52.762Z,15.80
2018-09-03T07:39:21.463Z,15.90
2018-09-03T07:41:50.044Z,15.90
2018-09-03T07:44:18.731Z,16.00
2018-09-03T07:46:47.375Z,16.00
2018-09-03T07:49:15.983Z,16.00
2018-09-03T07:51:44.564Z,16.00
2018-09-03T07:54:13.177Z,16.10
2018-09-03T07:56:41.807Z,16.10
2018-09-03T07:59:10.471Z,16.10
2018-09-03T08:01:39.140Z,16.20
2018-09-03T08:04:07.872Z,16.30
2018-09-03T08:06:36.431Z,16.30
2018-09-03T08:09:07.236Z,16.40
2018-09-03T08:11:36.367Z,16.50
2018-09-03T08:14:04.987Z,16.50
2018-09-03T08:16:33.507Z,16.60
2018-09-03T08:19:02.171Z,16.70
2018-09-03T08:21:30.842Z,16.70
2018-09-03T08:23:59.495Z,16.70
2018-09-03T08:26:28.058Z,16.80
2018-09-03T08:28:56.675Z,16.90
2018-09-03T08:31:25.268Z,16.90
2018-09-03T08:33:54.123Z,17.00
2018-09-03T08:36:22.698Z,17.10
2018-09-03T08:38:51.344Z,17.10
2018-09-03T08:41:19.955Z,16.90
2018-09-03T08:43:48.574Z,16.80
2018-09-03T08:46:17.455Z,16.90
2018-09-03T08:48:46.055Z,16.90
2018-09-03T08:51:14.648Z,17.00
2018-09-03T08:53:43.320Z,17.10
2018-09-03T08:56:12.148Z,17.20
2018-09-03T08:58:40.935Z,17.20
2018-09-03T09:01:09.602Z,17.30
2018-09-03T09:03:43.447Z,17.30
2018-09-03T09:06:12.474Z,17.30
2018-09-03T09:08:41.275Z,17.30
2018-09-03T09:11:10.251Z,17.40
2018-09-03T09:13:38.999Z,17.50
2018-09-03T09:16:07.654Z,17.60
2018-09-03T09:18:36.288Z,17.70
2018-09-03T09:21:05.006Z,17.80
2018-09-03T09:23:33.756Z,17.80
2018-09-03T09:26:02.384Z,17.80
2018-09-03T09:28:30.983Z,17.80
2018-09-03T09:30:59.786Z,17.80
2018-09-03T09:33:28.546Z,17.70
2018-09-03T09:35:57.240Z,17.70
2018-09-03T09:38:25.743Z,17.80
2018-09-03T09:40:54.542Z,17.80
2018-09-03T09:43:23.123Z,17.80
2018-09-03T09:45:51.803Z,17.80
2018-09-03T09:48:20.457Z,17.90
2018-09-03T09:50:49.061Z,17.90
2018-09-03T09:53:17.649Z,17.90
2018-09-03T09:55:46.323Z,17.90
2018-09-03T09:58:15.012Z,17.90
2018-09-03T10:00:48.931Z,17.90
2018-09-03T10:03:17.481Z,18.00
2018-09-03T10:05:46.106Z,18.10
2018-09-03T10:08:14.752Z,18.20
2018-09-03T10:10:43.423Z,18.30
2018-09-03T10:13:12.041Z,18.60
2018-09-03T10:15:40.707Z,18.80
2018-09-03T10:18:09.413Z,19.10
2018-09-03T10:20:38.076Z,19.40
2018-09-03T10:23:07.030Z,19.60
2018-09-03T10:25:35.713Z,19.60
2018-09-03T10:28:04.347Z,19.50
2018-09-03T10:30:33.071Z,19.50
2018-09-03T10:33:01.679Z,19.60
2018-09-03T10:35:30.606Z,19.80
2018-09-03T10:37:59.303Z,19.90
2018-09-03T10:40:27.996Z,19.90
2018-09-03T10:42:56.979Z,20.10
2018-09-03T10:45:25.660Z,20.20
2018-09-03T10:47:54.299Z,20.30
2018-09-03T10:50:22.917Z,20.30
2018-09-03T10:52:51.578Z,20.30
2018-09-03T10:55:20.208Z,20.30
2018-09-03T10:57:48.767Z,20.20
2018-09-03T11:00:22.355Z,20.30
2018-09-03T11:02:50.960Z,20.20
2018-09-03T11:05:19.656Z,20.20
2018-09-03T11:07:48.367Z,20.30
2018-09-03T11:10:16.981Z,20.30
2018-09-03T11:12:45.662Z,20.40
2018-09-03T11:15:14.251Z,20.60
2018-09-03T11:17:43.076Z,20.80
2018-09-03T11:20:15.308Z,21.10
2018-09-03T11:22:43.996Z,21.40
2018-09-03T11:25:12.734Z,21.20
2018-09-03T11:27:41.410Z,21.10
2018-09-03T11:30:10.127Z,21.30
2018-09-03T11:32:38.780Z,21.40
2018-09-03T11:35:07.522Z,21.50
2018-09-03T11:37:36.120Z,21.50
2018-09-03T11:40:04.867Z,21.30
2018-09-03T11:42:33.591Z,21.10
2018-09-03T11:45:02.290Z,20.80
2018-09-03T11:47:30.959Z,20.60
2018-09-03T11:49:59.652Z,20.40
2018-09-03T11:52:28.222Z,20.50
2018-09-03T11:54:56.843Z,20.40
2018-09-03T11:57:25.580Z,20.50
2018-09-03T11:59:54.355Z,20.90
2018-09-03T12:02:23.023Z,21.10
2018-09-03T12:04:51.675Z,21.10
2018-09-03T12:07:20.327Z,21.10
2018-09-03T12:09:48.936Z,21.20
2018-09-03T12:12:17.607Z,21.20
2018-09-03T12:14:48.675Z,21.10
2018-09-03T12:17:17.441Z,21.20
2018-09-03T12:19:46.143Z,21.30
2018-09-03T12:22:14.817Z,21.30
2018-09-03T12:24:43.516Z,21.60
2018-09-03T12:27:12.102Z,21.50
2018-09-03T12:29:40.745Z,21.50
2018-09-03T12:32:09.488Z,21.60
2018-09-03T12:34:38.158Z,21.70
2018-09-03T12:37:06.898Z,21.70
2018-09-03T12:39:35.479Z,21.70
2018-09-03T12:42:04.100Z,21.70
2018-09-03T12:44:32.816Z,21.50
2018-09-03T12:47:01.556Z,21.40
2018-09-03T12:49:30.214Z,21.20
2018-09-03T12:51:58.851Z,21.00
2018-09-03T12:54:27.525Z,20.90
2018-09-03T12:56:56.171Z,20.80
2018-09-03T12:59:24.848Z,20.60
2018-09-03T13:01:53.467Z,20.50
2018-09-03T13:04:22.166Z,20.40
2018-09-03T13:06:50.736Z,20.40
2018-09-03T13:09:19.410Z,20.30
2018-09-03T13:11:48.088Z,20.30
2018-09-03T13:14:16.801Z,20.30
2018-09-03T13:16:45.477Z,20.20
2018-09-03T13:19:14.303Z,20.20
2018-09-03T13:21:43.002Z,20.10
2018-09-03T13:24:11.667Z,20.00
2018-09-03T13:26:40.403Z,19.90
2018-09-03T13:29:09.039Z,19.90
2018-09-03T13:31:37.750Z,19.80
2018-09-03T13:34:06.464Z,19.80
2018-09-03T13:36:35.449Z,19.80
2018-09-03T13:39:05.041Z,19.80
2018-09-03T13:41:33.767Z,19.90
2018-09-03T13:44:02.361Z,19.90
2018-09-03T13:46:31.019Z,19.90
2018-09-03T13:48:59.662Z,19.90
2018-09-03T13:51:28.311Z,19.90
2018-09-03T13:53:57.015Z,20.00
2018-09-03T13:56:25.743Z,20.00
2018-09-03T13:58:54.447Z,20.00
2018-09-03T14:01:28.274Z,19.90
2018-09-03T14:03:56.961Z,19.90
2018-09-03T14:06:25.651Z,19.80
2018-09-03T14:08:54.299Z,19.70
2018-09-03T14:11:23.027Z,19.60
2018-09-03T14:13:51.696Z,19.60
2018-09-03T14:16:20.393Z,19.60
2018-09-03T14:18:49.075Z,19.50
2018-09-03T14:21:17.818Z,19.50
2018-09-03T14:23:46.458Z,19.60
2018-09-03T14:26:15.151Z,19.60
2018-09-03T14:28:43.823Z,19.60
2018-09-03T14:31:12.500Z,19.60
2018-09-03T14:33:41.116Z,19.60
2018-09-03T14:36:09.795Z,19.60
2018-09-03T14:38:38.459Z,19.60
2018-09-03T14:41:07.919Z,19.60
2018-09-03T14:43:36.610Z,19.50
2018-09-03T14:46:05.251Z,19.50
2018-09-03T14:48:33.879Z,19.60
2018-09-03T14:51:02.539Z,19.60
2018-09-03T14:53:31.154Z,19.70
2018-09-03T14:55:59.745Z,19.70
2018-09-03T14:58:28.339Z,19.70
2018-09-03T15:00:56.980Z,19.70
2018-09-03T15:03:25.608Z,19.80
2018-09-03T15:05:54.282Z,19.80
2018-09-03T15:08:23.015Z,19.70
2018-09-03T15:10:51.631Z,19.70
2018-09-03T15:13:20.247Z,19.70
2018-09-03T15:15:48.819Z,19.60
2018-09-03T15:18:17.378Z,19.60
2018-09-03T15:20:46.485Z,19.60
2018-09-03T15:23:15.091Z,19.60
2018-09-03T15:25:43.727Z,19.60
2018-09-03T15:28:12.321Z,19.60
2018-09-03T15:30:40.946Z,19.70
2018-09-03T15:33:09.619Z,19.70
2018-09-03T15:35:38.375Z,19.80
2018-09-03T15:38:06.999Z,19.80
2018-09-03T15:40:35.677Z,19.80
2018-09-03T15:43:04.443Z,19.80
2018-09-03T15:45:32.978Z,19.80
2018-09-03T15:48:01.641Z,19.80
2018-09-03T15:50:30.202Z,19.80
2018-09-03T15:52:58.828Z,19.70
2018-09-03T15:55:27.431Z,19.60
2018-09-03T15:57:56.239Z,19.60
2018-09-03T16:00:24.890Z,19.60
2018-09-03T16:02:53.533Z,19.70
2018-09-03T16:05:22.113Z,19.70
2018-09-03T16:07:50.763Z,19.60
2018-09-03T16:10:19.431Z,19.50
2018-09-03T16:12:48.088Z,19.40
2018-09-03T16:15:16.734Z,19.40
2018-09-03T16:17:45.324Z,19.30
2018-09-03T16:20:14.277Z,19.30
2018-09-03T16:22:43.013Z,19.40
2018-09-03T16:25:11.713Z,19.30
2018-09-03T16:27:40.450Z,19.30
2018-09-03T16:33:02.394Z,19.30
2018-09-03T16:35:31.018Z,19.30
2018-09-03T16:37:59.674Z,19.30
2018-09-03T16:40:28.334Z,19.20
2018-09-03T16:42:56.951Z,19.20
2018-09-03T16:45:25.547Z,19.10
2018-09-03T16:47:54.176Z,19.00
2018-09-03T16:50:22.815Z,18.80
2018-09-03T16:52:51.483Z,18.80
2018-09-03T16:55:20.212Z,18.70
2018-09-03T16:57:48.802Z,18.60
2018-09-03T17:00:17.459Z,18.50
2018-09-03T17:02:46.063Z,18.40
2018-09-03T17:05:14.815Z,18.40
2018-09-03T17:07:43.573Z,18.40
2018-09-03T17:10:11.961Z,18.20
2018-09-03T17:12:40.606Z,18.20
2018-09-03T17:15:09.259Z,18.10
2018-09-03T17:17:37.869Z,18.10
2018-09-03T17:20:06.599Z,18.10
2018-09-03T17:22:35.294Z,18.10
2018-09-03T17:25:03.986Z,18.10
2018-09-03T17:27:32.643Z,18.00
2018-09-03T17:30:01.306Z,18.00
2018-09-03T17:32:30.051Z,17.90
2018-09-03T17:34:58.736Z,17.90
2018-09-03T17:37:27.374Z,17.90
2018-09-03T17:39:56.039Z,17.90
2018-09-03T17:42:24.906Z,17.90
2018-09-03T17:44:53.634Z,18.00
2018-09-03T17:47:22.282Z,17.90
2018-09-03T17:49:51.004Z,17.90
2018-09-03T17:52:19.531Z,17.90
2018-09-03T17:54:48.193Z,17.80
2018-09-03T17:57:16.754Z,17.90
2018-09-03T17:59:45.371Z,17.80
2018-09-03T18:02:14.166Z,17.90
2018-09-03T18:04:42.968Z,17.80
2018-09-03T18:07:11.561Z,17.80
2018-09-03T18:09:40.281Z,17.70
2018-09-03T18:12:08.932Z,17.70
2018-09-03T18:14:37.602Z,17.60
2018-09-03T18:17:06.272Z,17.60
2018-09-03T18:19:34.931Z,17.60
2018-09-03T18:22:03.570Z,17.60
2018-09-03T18:24:32.190Z,17.60
2018-09-03T18:27:00.815Z,17.60
2018-09-03T18:29:29.407Z,17.60
2018-09-03T18:32:07.351Z,17.60
2018-09-03T18:34:36.003Z,17.60
2018-09-03T18:37:04.631Z,17.50
2018-09-03T18:39:33.242Z,17.50
2018-09-03T18:42:01.967Z,17.50
2018-09-03T18:44:30.547Z,17.50
2018-09-03T18:46:59.182Z,17.50
2018-09-03T18:49:27.826Z,17.50
2018-09-03T18:51:56.431Z,17.50
2018-09-03T18:54:25.063Z,17.40
2018-09-03T18:56:53.687Z,17.40
2018-09-03T18:59:22.395Z,17.40
2018-09-03T19:01:51.026Z,17.30
2018-09-03T19:04:19.597Z,17.30
2018-09-03T19:06:48.285Z,17.30
2018-09-03T19:09:16.858Z,17.30
2018-09-03T19:11:45.483Z,17.20
2018-09-03T19:14:14.109Z,17.20
2018-09-03T19:16:42.782Z,17.20
2018-09-03T19:19:11.467Z,17.20
2018-09-03T19:21:40.141Z,17.20
2018-09-03T19:24:09.054Z,17.10
2018-09-03T19:26:37.681Z,17.10
2018-09-03T19:29:06.415Z,17.20
2018-09-03T19:31:35.054Z,17.20
2018-09-03T19:34:03.627Z,17.10
2018-09-03T19:36:32.320Z,17.10
2018-09-03T19:39:00.900Z,17.00
2018-09-03T19:41:29.501Z,17.00
2018-09-03T19:43:58.103Z,16.90
2018-09-03T19:46:26.707Z,17.00
2018-09-03T19:48:55.259Z,17.00
2018-09-03T19:51:24.003Z,17.00
2018-09-03T19:53:52.594Z,17.00
2018-09-03T19:56:21.191Z,17.00
2018-09-03T19:58:49.835Z,17.00
2018-09-03T20:01:18.515Z,17.00
2018-09-03T20:03:47.152Z,17.00
2018-09-03T20:06:15.764Z,17.00
2018-09-03T20:08:44.491Z,16.90
2018-09-03T20:11:13.119Z,16.90
2018-09-03T20:13:41.727Z,16.90
2018-09-03T20:16:10.388Z,16.70
2018-09-03T20:18:39.024Z,16.70
2018-09-03T20:21:07.654Z,16.70
2018-09-03T20:23:36.537Z,16.60
2018-09-03T20:26:05.116Z,16.60
2018-09-03T20:28:33.809Z,16.50
2018-09-03T20:31:02.397Z,16.60
2018-09-03T20:33:31.076Z,16.50
2018-09-03T20:35:59.654Z,16.50
2018-09-03T20:38:28.286Z,16.50
2018-09-03T20:40:56.947Z,16.40
2018-09-03T20:43:25.599Z,16.40
2018-09-03T20:45:54.246Z,16.40
2018-09-03T20:48:22.952Z,16.40
2018-09-03T20:50:51.559Z,16.30
2018-09-03T20:53:20.149Z,16.30
2018-09-03T20:55:48.806Z,16.20
2018-09-03T20:58:17.402Z,16.20
2018-09-03T21:00:46.027Z,16.10
2018-09-03T21:03:14.671Z,16.00
2018-09-03T21:05:43.351Z,16.00
2018-09-03T21:08:11.960Z,15.90
2018-09-03T21:10:40.599Z,15.90
2018-09-03T21:13:09.229Z,15.90
2018-09-03T21:15:38.470Z,15.90
2018-09-03T21:18:07.231Z,15.90
2018-09-03T21:20:37.335Z,15.90
2018-09-03T21:23:05.974Z,15.80
2018-09-03T21:25:34.596Z,15.80
2018-09-03T21:28:03.194Z,15.80
2018-09-03T21:30:31.771Z,15.70
2018-09-03T21:33:00.445Z,15.70
2018-09-03T21:35:29.160Z,15.70
2018-09-03T21:37:57.798Z,15.60
2018-09-03T21:40:26.500Z,15.60
2018-09-03T21:42:55.180Z,15.50
2018-09-03T21:45:23.742Z,15.40
2018-09-03T21:47:52.363Z,15.30
2018-09-03T21:50:21.108Z,15.30
2018-09-03T21:52:49.717Z,15.20
2018-09-03T21:55:18.300Z,15.20
2018-09-03T21:57:47.396Z,15.20
2018-09-03T22:00:16.131Z,15.20
2018-09-03T22:02:45.458Z,15.10
2018-09-03T22:05:14.115Z,15.10
2018-09-03T22:07:42.734Z,15.20
2018-09-03T22:10:11.262Z,15.20
2018-09-03T22:12:39.887Z,15.10
2018-09-03T22:15:08.546Z,15.10
2018-09-03T22:17:37.085Z,15.00
2018-09-03T22:20:05.777Z,15.00
2018-09-03T22:22:34.415Z,15.00
2018-09-03T22:25:03.095Z,15.00
2018-09-03T22:27:31.727Z,15.00
2018-09-03T22:30:00.502Z,15.00
2018-09-03T22:32:29.062Z,14.90
2018-09-03T22:34:57.667Z,14.90
2018-09-03T22:37:26.268Z,14.80
2018-09-03T22:39:54.923Z,14.60
2018-09-03T22:42:26.262Z,14.60
2018-09-03T22:44:55.776Z,14.60
2018-09-03T22:47:24.574Z,14.60
2018-09-03T22:49:53.324Z,14.60
2018-09-03T22:52:22.033Z,14.60
2018-09-03T22:54:50.662Z,14.60
2018-09-03T22:57:19.364Z,14.60
2018-09-03T22:59:48.009Z,14.70
2018-09-03T23:02:16.696Z,14.70
2018-09-03T23:04:45.379Z,14.70
2018-09-03T23:07:14.087Z,14.70
2018-09-03T23:09:42.735Z,14.60
2018-09-03T23:12:11.438Z,14.60
2018-09-03T23:14:40.024Z,14.60
2018-09-03T23:17:08.710Z,14.70
2018-09-03T23:19:37.385Z,14.60
2018-09-03T23:22:11.138Z,14.60
2018-09-03T23:24:39.787Z,14.50
2018-09-03T23:27:08.398Z,14.40
2018-09-03T23:29:37.027Z,14.30
2018-09-03T23:32:05.886Z,14.20
2018-09-03T23:34:34.490Z,14.20
2018-09-03T23:37:03.210Z,14.10
2018-09-03T23:39:31.878Z,14.10
2018-09-03T23:42:00.551Z,14.00
2018-09-03T23:44:29.152Z,14.00
2018-09-03T23:46:57.807Z,14.00
2018-09-03T23:49:26.419Z,14.00
2018-09-03T23:51:55.023Z,13.90
2018-09-03T23:54:23.600Z,13.80
2018-09-03T23:56:52.168Z,13.70
2018-09-03T23:59:20.782Z,13.70
